createdAt,value
2023-03-20T00:01:58.558Z,100391.41
2023-03-20T00:04:26.209Z,100388.13
2023-03-20T00:06:52.869Z,100390.69
2023-03-20T00:09:19.485Z,100389.59
2023-03-20T00:11:53.840Z,100386.16
2023-03-20T00:14:24.380Z,100386.16
2023-03-20T00:16:51.802Z,100383.75
2023-03-20T00:19:23.274Z,100389.34
2023-03-20T00:21:51.391Z,100384.97
2023-03-20T00:24:18.504Z,100384.25
2023-03-20T00:26:46.823Z,100385.25
2023-03-20T00:29:21.722Z,100388.63
2023-03-20T00:31:48.937Z,100393.28
2023-03-20T00:34:17.904Z,100392.44
2023-03-20T00:36:44.424Z,100389.03
2023-03-20T00:39:11.211Z,100385.47
2023-03-20T00:41:54.984Z,100386.47
2023-03-20T00:44:27.200Z,100386.56
2023-03-20T00:46:57.005Z,100382.31
2023-03-20T00:49:28.110Z,100374.38
2023-03-20T00:51:55.533Z,100379.75
2023-03-20T00:54:22.133Z,100380.50
2023-03-20T00:57:27.057Z,100378.53
2023-03-20T00:59:59.487Z,100380.38
2023-03-20T01:02:29.888Z,100385.75
2023-03-20T01:04:57.282Z,100377.81
2023-03-20T01:07:24.113Z,100384.16
2023-03-20T01:09:50.695Z,100385.97
2023-03-20T01:12:17.537Z,100386.84
2023-03-20T01:14:44.358Z,100386.97
2023-03-20T01:17:18.541Z,100383.69
2023-03-20T01:19:45.157Z,100379.31
2023-03-20T01:22:14.121Z,100387.47
2023-03-20T01:24:40.849Z,100384.91
2023-03-20T01:27:19.129Z,100379.81
2023-03-20T01:29:46.759Z,100377.22
2023-03-20T01:32:17.031Z,100370.88
2023-03-20T01:34:44.427Z,100365.50
2023-03-20T01:37:37.188Z,100364.53
2023-03-20T01:40:04.282Z,100370.63
2023-03-20T01:42:32.181Z,100361.63
2023-03-20T01:44:58.720Z,100360.75
2023-03-20T01:47:26.223Z,100356.25
2023-03-20T01:50:14.071Z,100356.09
2023-03-20T01:52:40.701Z,100356.84
2023-03-20T01:55:07.822Z,100358.53
2023-03-20T01:57:34.616Z,100361.94
2023-03-20T02:00:10.260Z,100364.50
2023-03-20T02:02:38.171Z,100368.06
2023-03-20T02:05:10.705Z,100364.38
2023-03-20T02:07:38.323Z,100359.84
2023-03-20T02:10:09.661Z,100354.47
2023-03-20T02:12:38.017Z,100348.28
2023-03-20T02:15:07.746Z,100346.44
2023-03-20T02:17:34.596Z,100349.97
2023-03-20T02:20:20.256Z,100351.94
2023-03-20T02:23:25.315Z,100349.38
2023-03-20T02:26:12.387Z,100343.31
2023-03-20T02:28:54.270Z,100337.06
2023-03-20T02:31:23.535Z,100336.19
2023-03-20T02:34:05.091Z,100336.94
2023-03-20T02:37:06.992Z,100335.38
2023-03-20T02:39:39.344Z,100335.50
2023-03-20T02:42:31.897Z,100326.72
2023-03-20T02:45:21.456Z,100324.88
2023-03-20T02:48:03.023Z,100320.50
2023-03-20T02:50:38.813Z,100319.91
2023-03-20T02:53:26.482Z,100326.38
2023-03-20T02:56:03.528Z,100328.44
2023-03-20T02:58:45.466Z,100323.47
2023-03-20T03:01:18.101Z,100322.81
2023-03-20T03:03:50.652Z,100318.81
2023-03-20T03:06:26.154Z,100328.22
2023-03-20T03:09:02.270Z,100338.59
2023-03-20T03:11:30.583Z,100340.56
2023-03-20T03:13:59.075Z,100345.53
2023-03-20T03:16:37.034Z,100348.47
2023-03-20T03:19:13.206Z,100350.53
2023-03-20T03:21:41.532Z,100349.31
2023-03-20T03:24:39.728Z,100341.66
2023-03-20T03:27:19.865Z,100351.78
2023-03-20T03:29:54.049Z,100358.22
2023-03-20T03:32:33.392Z,100356.16
2023-03-20T03:35:01.586Z,100353.59
2023-03-20T03:37:28.151Z,100350.19
2023-03-20T03:40:11.885Z,100343.22
2023-03-20T03:43:00.560Z,100346.41
2023-03-20T03:46:17.280Z,100360.13
2023-03-20T03:48:48.932Z,100362.97
2023-03-20T03:51:20.233Z,100363.78
2023-03-20T03:53:53.946Z,100361.25
2023-03-20T03:56:26.180Z,100366.84
2023-03-20T03:58:57.847Z,100371.69
2023-03-20T04:01:27.943Z,100369.59
2023-03-20T04:03:59.017Z,100377.28
2023-03-20T04:06:26.895Z,100376.78
2023-03-20T04:08:53.637Z,100369.66
2023-03-20T04:11:24.277Z,100364.88
2023-03-20T04:13:52.504Z,100368.03
2023-03-20T04:16:21.270Z,100374.38
2023-03-20T04:18:48.172Z,100376.19
2023-03-20T04:21:16.360Z,100372.97
2023-03-20T04:23:43.850Z,100382.81
2023-03-20T04:26:10.518Z,100381.97
2023-03-20T04:28:37.244Z,100382.31
2023-03-20T04:31:04.418Z,100383.66
2023-03-20T04:33:31.226Z,100384.09
2023-03-20T04:35:57.951Z,100392.78
2023-03-20T04:38:24.686Z,100391.53
2023-03-20T04:40:51.545Z,100386.09
2023-03-20T04:43:18.734Z,100391.56
2023-03-20T04:45:45.455Z,100393.41
2023-03-20T04:48:12.005Z,100393.34
2023-03-20T04:50:38.865Z,100389.50
2023-03-20T04:53:05.914Z,100392.63
2023-03-20T04:55:32.457Z,100395.72
2023-03-20T04:57:59.052Z,100387.91
2023-03-20T05:00:25.869Z,100391.84
2023-03-20T05:02:52.441Z,100395.47
2023-03-20T05:05:19.167Z,100401.88
2023-03-20T05:07:46.022Z,100395.47
2023-03-20T05:10:12.548Z,100395.88
2023-03-20T05:12:39.178Z,100396.94
2023-03-20T05:15:06.157Z,100392.44
2023-03-20T05:17:32.740Z,100397.59
2023-03-20T05:20:00.086Z,100408.16
2023-03-20T05:22:26.738Z,100411.50
2023-03-20T05:24:53.516Z,100418.03
2023-03-20T05:27:20.181Z,100415.91
2023-03-20T05:29:46.720Z,100420.47
2023-03-20T05:32:13.284Z,100414.56
2023-03-20T05:34:41.462Z,100413.84
2023-03-20T05:37:08.045Z,100422.03
2023-03-20T05:39:34.599Z,100424.19
2023-03-20T05:42:01.491Z,100417.34
2023-03-20T05:44:28.115Z,100422.03
2023-03-20T05:46:54.670Z,100419.34
2023-03-20T05:49:23.580Z,100419.03
2023-03-20T05:51:50.219Z,100421.19
2023-03-20T05:54:17.011Z,100425.25
2023-03-20T05:56:43.665Z,100428.28
2023-03-20T05:59:11.850Z,100423.50
2023-03-20T06:01:38.412Z,100428.41
2023-03-20T06:04:05.098Z,100436.75
2023-03-20T06:06:31.811Z,100444.34
2023-03-20T06:08:58.386Z,100450.03
2023-03-20T06:11:25.020Z,100446.81
2023-03-20T06:13:54.583Z,100443.00
2023-03-20T06:16:21.639Z,100443.44
2023-03-20T06:18:49.205Z,100446.66
2023-03-20T06:21:15.757Z,100449.63
2023-03-20T06:23:42.329Z,100446.97
2023-03-20T06:26:08.960Z,100444.47
2023-03-20T06:28:35.823Z,100443.06
2023-03-20T06:31:02.382Z,100445.09
2023-03-20T06:33:31.075Z,100452.13
2023-03-20T06:35:57.830Z,100452.94
2023-03-20T06:38:24.491Z,100439.63
2023-03-20T06:40:51.107Z,100446.50
2023-03-20T06:43:17.636Z,100447.94
2023-03-20T06:45:44.149Z,100449.47
2023-03-20T06:48:11.323Z,100439.28
2023-03-20T06:50:37.869Z,100440.81
2023-03-20T06:53:04.416Z,100441.34
2023-03-20T06:55:31.532Z,100442.69
2023-03-20T06:57:58.106Z,100438.66
2023-03-20T07:00:24.962Z,100442.72
2023-03-20T07:02:51.658Z,100442.13
2023-03-20T07:05:18.439Z,100435.25
2023-03-20T07:07:45.076Z,100438.63
2023-03-20T07:10:12.515Z,100440.00
2023-03-20T07:12:39.921Z,100439.75
2023-03-20T07:15:07.262Z,100437.81
2023-03-20T07:17:33.885Z,100445.84
2023-03-20T07:20:00.613Z,100443.13
2023-03-20T07:22:29.675Z,100437.59
2023-03-20T07:24:57.057Z,100441.22
2023-03-20T07:27:23.671Z,100443.94
2023-03-20T07:29:50.222Z,100442.72
2023-03-20T07:32:17.106Z,100444.84
2023-03-20T07:34:44.392Z,100434.38
2023-03-20T07:37:11.439Z,100437.19
2023-03-20T07:39:38.000Z,100436.63
2023-03-20T07:42:04.927Z,100432.63
2023-03-20T07:44:31.511Z,100440.16
2023-03-20T07:46:58.072Z,100434.00
2023-03-20T07:49:24.708Z,100437.22
2023-03-20T07:51:51.614Z,100447.69
2023-03-20T07:54:18.410Z,100439.41
2023-03-20T07:56:45.256Z,100445.16
2023-03-20T07:59:12.950Z,100442.78
2023-03-20T08:01:39.596Z,100437.88
2023-03-20T08:04:06.362Z,100444.59
2023-03-20T08:06:33.031Z,100445.94
2023-03-20T08:08:59.780Z,100441.84
2023-03-20T08:11:26.586Z,100457.53
2023-03-20T08:13:53.172Z,100450.72
2023-03-20T08:16:19.780Z,100451.88
2023-03-20T08:18:46.408Z,100448.28
2023-03-20T08:21:12.997Z,100451.78
2023-03-20T08:23:39.591Z,100456.94
2023-03-20T08:26:07.146Z,100451.91
2023-03-20T08:28:46.571Z,100454.03
2023-03-20T08:31:15.016Z,100453.28
2023-03-20T08:33:41.647Z,100453.50
2023-03-20T08:36:08.903Z,100453.69
2023-03-20T08:38:35.952Z,100454.06
2023-03-20T08:41:02.652Z,100459.00
2023-03-20T08:43:29.453Z,100449.53
2023-03-20T08:45:56.192Z,100453.59
2023-03-20T08:48:23.109Z,100448.50
2023-03-20T08:50:50.019Z,100456.50
2023-03-20T08:53:16.802Z,100454.13
2023-03-20T08:55:51.241Z,100450.88
2023-03-20T08:58:18.214Z,100459.53
2023-03-20T09:00:45.553Z,100459.31
2023-03-20T09:03:17.589Z,100458.63
2023-03-20T09:05:46.514Z,100461.66
2023-03-20T09:08:13.799Z,100467.06
2023-03-20T09:10:40.893Z,100462.59
2023-03-20T09:13:25.645Z,100458.16
2023-03-20T09:15:53.809Z,100449.13
2023-03-20T09:18:21.079Z,100452.31
2023-03-20T09:20:48.489Z,100460.63
2023-03-20T09:23:15.302Z,100455.00
2023-03-20T09:25:41.885Z,100460.03
2023-03-20T09:28:08.424Z,100461.69
2023-03-20T09:30:35.451Z,100454.81
2023-03-20T09:33:02.242Z,100462.34
2023-03-20T09:35:28.884Z,100452.25
2023-03-20T09:37:56.598Z,100453.97
2023-03-20T09:40:32.724Z,100449.19
2023-03-20T09:43:17.570Z,100450.31
2023-03-20T09:46:22.224Z,100452.59
2023-03-20T09:48:57.745Z,100446.06
2023-03-20T09:51:38.294Z,100447.31
2023-03-20T09:54:18.623Z,100443.50
2023-03-20T09:56:45.845Z,100444.34
2023-03-20T09:59:16.420Z,100453.75
2023-03-20T10:01:50.898Z,100454.78
2023-03-20T10:04:17.767Z,100453.75
2023-03-20T10:06:44.440Z,100454.97
2023-03-20T10:09:18.716Z,100445.44
2023-03-20T10:11:51.142Z,100447.72
2023-03-20T10:14:41.852Z,100449.84
2023-03-20T10:17:14.673Z,100447.41
2023-03-20T10:19:50.966Z,100445.41
2023-03-20T10:22:27.236Z,100447.63
2023-03-20T10:25:18.318Z,100446.50
2023-03-20T10:27:57.986Z,100442.81
2023-03-20T10:30:38.965Z,100441.44
2023-03-20T10:33:33.107Z,100431.00
2023-03-20T10:36:02.716Z,100432.75
2023-03-20T10:38:56.899Z,100433.78
2023-03-20T10:41:31.497Z,100424.44
2023-03-20T10:44:00.179Z,100428.69
2023-03-20T10:46:43.316Z,100425.28
2023-03-20T10:49:18.800Z,100424.63
2023-03-20T10:51:52.888Z,100432.28
2023-03-20T10:54:33.896Z,100426.63
2023-03-20T10:57:03.756Z,100422.84
2023-03-20T10:59:40.411Z,100422.91
2023-03-20T11:02:12.372Z,100414.06
2023-03-20T11:04:39.871Z,100415.56
2023-03-20T11:07:25.468Z,100403.94
2023-03-20T11:10:04.602Z,100404.00
2023-03-20T11:12:43.534Z,100397.09
2023-03-20T11:15:32.836Z,100403.63
2023-03-20T11:18:04.901Z,100391.41
2023-03-20T11:20:38.848Z,100391.66
2023-03-20T11:23:08.411Z,100386.31
2023-03-20T11:25:40.749Z,100398.66
2023-03-20T11:28:32.150Z,100384.81
2023-03-20T11:31:06.642Z,100377.19
2023-03-20T11:33:44.216Z,100385.84
2023-03-20T11:36:25.305Z,100376.69
2023-03-20T11:38:58.596Z,100373.44
2023-03-20T11:41:27.749Z,100367.84
2023-03-20T11:43:54.977Z,100368.16
2023-03-20T11:46:23.707Z,100373.25
2023-03-20T11:49:24.876Z,100365.03
2023-03-20T11:51:52.710Z,100365.44
2023-03-20T11:54:23.445Z,100369.47
2023-03-20T11:57:00.966Z,100371.19
2023-03-20T11:59:34.114Z,100363.41
2023-03-20T12:02:17.088Z,100361.28
2023-03-20T12:04:45.776Z,100366.59
2023-03-20T12:07:33.528Z,100351.59
2023-03-20T12:10:04.827Z,100357.44
2023-03-20T12:12:50.266Z,100355.91
2023-03-20T12:15:30.827Z,100355.47
2023-03-20T12:17:59.360Z,100346.34
2023-03-20T12:20:44.126Z,100345.19
2023-03-20T12:23:11.188Z,100341.94
2023-03-20T12:26:08.960Z,100348.16
2023-03-20T12:28:41.485Z,100351.88
2023-03-20T12:31:16.846Z,100348.44
2023-03-20T12:34:05.863Z,100348.03
2023-03-20T12:36:36.030Z,100349.13
2023-03-20T12:39:05.192Z,100348.28
2023-03-20T12:41:46.604Z,100343.03
2023-03-20T12:44:38.323Z,100351.97
2023-03-20T12:47:26.870Z,100343.19
2023-03-20T12:49:59.384Z,100344.50
2023-03-20T12:52:45.324Z,100341.59
2023-03-20T12:55:18.071Z,100340.78
2023-03-20T12:57:57.601Z,100341.03
2023-03-20T13:00:45.176Z,100327.19
2023-03-20T13:03:23.274Z,100322.97
2023-03-20T13:05:57.801Z,100330.53
2023-03-20T13:08:43.040Z,100328.59
2023-03-20T13:11:37.319Z,100322.59
2023-03-20T13:14:28.690Z,100320.38
2023-03-20T13:17:11.602Z,100318.56
2023-03-20T13:20:10.933Z,100307.25
2023-03-20T13:22:58.465Z,100311.69
2023-03-20T13:25:43.407Z,100305.63
2023-03-20T13:28:23.102Z,100296.84
2023-03-20T13:30:59.314Z,100299.75
2023-03-20T13:33:43.655Z,100302.69
2023-03-20T13:36:22.157Z,100297.41
2023-03-20T13:38:57.857Z,100293.28
2023-03-20T13:41:26.489Z,100298.31
2023-03-20T13:44:01.064Z,100295.28
2023-03-20T13:46:41.583Z,100294.50
2023-03-20T13:49:43.311Z,100291.81
2023-03-20T13:52:20.957Z,100283.78
2023-03-20T13:55:24.991Z,100293.91
2023-03-20T13:58:19.946Z,100296.41
2023-03-20T14:00:50.064Z,100295.03
2023-03-20T14:03:25.509Z,100294.19
2023-03-20T14:05:52.641Z,100295.88
2023-03-20T14:08:28.208Z,100292.81
2023-03-20T14:11:05.246Z,100287.38
2023-03-20T14:13:34.593Z,100302.56
2023-03-20T14:16:08.593Z,100294.44
2023-03-20T14:18:36.312Z,100289.38
2023-03-20T14:21:11.700Z,100288.75
2023-03-20T14:23:42.945Z,100294.13
2023-03-20T14:26:19.465Z,100288.50
2023-03-20T14:28:59.899Z,100286.88
2023-03-20T14:31:42.060Z,100292.78
2023-03-20T14:34:11.896Z,100284.97
2023-03-20T14:36:47.727Z,100281.78
2023-03-20T14:39:32.772Z,100288.81
2023-03-20T14:42:05.447Z,100296.31
2023-03-20T14:44:39.577Z,100295.34
2023-03-20T14:47:43.209Z,100287.53
2023-03-20T14:50:15.390Z,100281.38
2023-03-20T14:52:53.855Z,100288.81
2023-03-20T14:55:20.534Z,100284.44
2023-03-20T14:57:56.032Z,100285.56
2023-03-20T15:00:25.945Z,100276.94
2023-03-20T15:03:14.279Z,100282.53
2023-03-20T15:05:42.228Z,100278.00
2023-03-20T15:08:34.921Z,100273.88
2023-03-20T15:11:10.423Z,100272.84
2023-03-20T15:13:38.035Z,100282.41
2023-03-20T15:16:07.401Z,100273.63
2023-03-20T15:18:41.977Z,100273.28
2023-03-20T15:21:17.140Z,100280.84
2023-03-20T15:23:45.611Z,100280.31
2023-03-20T15:26:15.432Z,100272.56
2023-03-20T15:28:43.449Z,100271.13
2023-03-20T15:31:21.668Z,100272.00
2023-03-20T15:33:48.556Z,100269.03
2023-03-20T15:36:18.820Z,100277.03
2023-03-20T15:38:46.909Z,100270.94
2023-03-20T15:41:32.107Z,100281.69
2023-03-20T15:44:06.344Z,100269.66
2023-03-20T15:46:32.904Z,100263.59
2023-03-20T15:49:00.332Z,100274.31
2023-03-20T15:51:28.173Z,100261.66
2023-03-20T15:53:54.964Z,100257.66
2023-03-20T15:56:26.525Z,100267.34
2023-03-20T15:58:55.711Z,100258.38
2023-03-20T16:01:26.330Z,100260.38
2023-03-20T16:03:58.164Z,100264.63
2023-03-20T16:06:25.621Z,100265.50
2023-03-20T16:09:07.282Z,100267.13
2023-03-20T16:11:42.503Z,100275.06
2023-03-20T16:14:27.667Z,100279.47
2023-03-20T16:16:57.345Z,100277.78
2023-03-20T16:19:26.303Z,100277.34
2023-03-20T16:22:19.263Z,100293.75
2023-03-20T16:24:48.342Z,100287.97
2023-03-20T16:27:29.839Z,100291.16
2023-03-20T16:29:57.062Z,100295.66
2023-03-20T16:32:45.614Z,100299.69
2023-03-20T16:35:21.995Z,100294.38
2023-03-20T16:37:54.914Z,100291.88
2023-03-20T16:40:36.364Z,100296.72
2023-03-20T16:43:23.897Z,100301.06
2023-03-20T16:45:54.080Z,100304.63
2023-03-20T16:48:31.538Z,100307.72
2023-03-20T16:51:02.205Z,100312.63
2023-03-20T16:53:37.082Z,100309.88
2023-03-20T16:56:05.143Z,100316.84
2023-03-20T16:58:34.049Z,100317.38
2023-03-20T17:01:06.275Z,100323.63
2023-03-20T17:03:44.637Z,100313.75
2023-03-20T17:06:21.111Z,100317.94
2023-03-20T17:09:13.121Z,100323.28
2023-03-20T17:11:44.655Z,100319.09
2023-03-20T17:14:11.262Z,100317.66
2023-03-20T17:16:40.345Z,100321.63
2023-03-20T17:19:18.118Z,100317.97
2023-03-20T17:21:46.360Z,100326.69
2023-03-20T17:24:14.978Z,100329.16
2023-03-20T17:26:44.187Z,100326.97
2023-03-20T17:29:12.273Z,100328.69
2023-03-20T17:31:39.435Z,100331.09
2023-03-20T17:34:06.307Z,100325.38
2023-03-20T17:36:34.915Z,100319.28
2023-03-20T17:39:02.124Z,100316.91
2023-03-20T17:41:29.168Z,100325.25
2023-03-20T17:43:58.832Z,100334.06
2023-03-20T17:46:28.224Z,100336.94
2023-03-20T17:49:26.830Z,100340.97
2023-03-20T17:51:54.305Z,100343.09
2023-03-20T17:54:21.488Z,100339.16
2023-03-20T17:56:48.147Z,100344.84
2023-03-20T17:59:15.356Z,100345.81
2023-03-20T18:01:42.563Z,100346.78
2023-03-20T18:04:09.413Z,100344.25
2023-03-20T18:06:37.022Z,100350.09
2023-03-20T18:09:04.979Z,100346.66
2023-03-20T18:11:31.820Z,100351.69
2023-03-20T18:13:59.844Z,100346.44
2023-03-20T18:16:27.459Z,100344.03
2023-03-20T18:18:54.717Z,100349.66
2023-03-20T18:21:21.420Z,100349.00
2023-03-20T18:23:48.032Z,100354.53
2023-03-20T18:26:22.342Z,100353.47
2023-03-20T18:28:50.272Z,100354.19
2023-03-20T18:31:19.168Z,100351.31
2023-03-20T18:33:50.171Z,100353.25
2023-03-20T18:36:19.410Z,100355.16
2023-03-20T18:38:46.419Z,100363.72
2023-03-20T18:41:13.501Z,100358.53
2023-03-20T18:43:40.812Z,100355.97
2023-03-20T18:46:11.843Z,100354.88
2023-03-20T18:48:38.377Z,100359.34
2023-03-20T18:51:05.139Z,100359.47
2023-03-20T18:53:31.737Z,100356.28
2023-03-20T18:55:58.398Z,100360.41
2023-03-20T18:58:28.560Z,100364.00
2023-03-20T19:00:57.292Z,100353.06
2023-03-20T19:03:24.603Z,100355.09
2023-03-20T19:05:52.916Z,100359.63
2023-03-20T19:08:20.164Z,100354.00
2023-03-20T19:10:47.051Z,100359.22
2023-03-20T19:13:16.882Z,100359.25
2023-03-20T19:15:44.839Z,100360.38
2023-03-20T19:18:20.480Z,100355.16
2023-03-20T19:20:51.913Z,100357.88
2023-03-20T19:23:20.539Z,100357.03
2023-03-20T19:25:49.830Z,100357.47
2023-03-20T19:28:21.799Z,100360.72
2023-03-20T19:30:50.364Z,100354.19
2023-03-20T19:33:17.049Z,100356.19
2023-03-20T19:36:01.675Z,100357.75
2023-03-20T19:38:28.939Z,100360.16
2023-03-20T19:40:55.683Z,100357.31
2023-03-20T19:43:23.177Z,100361.69
2023-03-20T19:45:54.980Z,100358.00
2023-03-20T19:48:43.306Z,100349.78
2023-03-20T19:51:26.556Z,100350.78
2023-03-20T19:53:54.134Z,100361.13
2023-03-20T19:56:22.678Z,100357.88
2023-03-20T19:58:50.036Z,100360.00
2023-03-20T20:01:20.102Z,100352.22
2023-03-20T20:03:48.148Z,100357.91
2023-03-20T20:06:15.938Z,100361.47
2023-03-20T20:08:48.416Z,100362.03
2023-03-20T20:11:17.649Z,100353.22
2023-03-20T20:16:31.300Z,100359.63
2023-03-20T20:18:57.920Z,100366.72
2023-03-20T20:24:11.076Z,100357.50
2023-03-20T20:26:41.160Z,100358.31
2023-03-20T20:29:14.452Z,100362.28
2023-03-20T20:31:41.144Z,100356.75
2023-03-20T20:35:07.381Z,100366.78
2023-03-20T20:39:41.186Z,100359.72
2023-03-20T20:42:07.757Z,100355.91
2023-03-20T20:44:34.758Z,100351.25
2023-03-20T20:47:01.354Z,100351.81
2023-03-20T20:49:27.920Z,100357.06
2023-03-20T20:51:54.618Z,100352.50
2023-03-20T20:54:21.386Z,100344.72
2023-03-20T20:56:47.949Z,100347.13
2023-03-20T20:59:14.599Z,100352.25
2023-03-20T21:01:41.285Z,100353.06
2023-03-20T21:04:08.064Z,100347.69
2023-03-20T21:07:03.837Z,100341.59
2023-03-20T21:09:21.325Z,100350.38
2023-03-20T21:11:48.694Z,100352.06
2023-03-20T21:14:15.416Z,100358.44
2023-03-20T21:16:41.968Z,100361.38
2023-03-20T21:19:08.619Z,100351.19
2023-03-20T21:21:35.709Z,100348.03
2023-03-20T21:24:02.751Z,100352.72
2023-03-20T21:26:29.428Z,100341.81
2023-03-20T21:28:56.259Z,100353.84
2023-03-20T21:31:30.421Z,100343.44
2023-03-20T21:33:57.929Z,100361.84
2023-03-20T21:36:24.723Z,100352.66
2023-03-20T21:39:07.254Z,100360.75
2023-03-20T21:41:36.325Z,100359.28
2023-03-20T21:44:03.749Z,100364.50
2023-03-20T21:47:09.279Z,100360.16
2023-03-20T21:50:19.356Z,100360.91
2023-03-20T21:52:48.846Z,100354.91
2023-03-20T21:55:34.888Z,100368.03
2023-03-20T22:03:22.310Z,100356.97
2023-03-20T22:12:14.422Z,100368.34
2023-03-20T22:15:11.997Z,100368.72
2023-03-20T22:17:56.239Z,100363.69
2023-03-20T22:23:21.682Z,100364.84
2023-03-20T22:26:11.033Z,100358.91
2023-03-20T22:40:08.680Z,100358.84
2023-03-20T22:45:02.002Z,100346.13
2023-03-20T22:47:30.282Z,100348.69
2023-03-20T22:49:56.961Z,100345.31
2023-03-20T22:52:34.793Z,100340.50
2023-03-20T22:55:09.504Z,100337.75
2023-03-20T22:57:45.711Z,100335.00
2023-03-20T23:00:20.108Z,100333.22
2023-03-20T23:02:47.582Z,100330.25
2023-03-20T23:05:14.216Z,100321.19
2023-03-20T23:07:40.788Z,100318.50
2023-03-20T23:10:09.718Z,100322.88
2023-03-20T23:12:40.563Z,100324.31
2023-03-20T23:15:08.851Z,100318.75
2023-03-20T23:17:35.459Z,100320.69
2023-03-20T23:20:11.570Z,100322.81
2023-03-20T23:22:39.458Z,100315.69
2023-03-20T23:25:16.420Z,100319.66
2023-03-20T23:27:47.557Z,100311.84
2023-03-20T23:30:14.873Z,100320.59
2023-03-20T23:32:41.814Z,100324.56
2023-03-20T23:35:09.067Z,100330.66
2023-03-20T23:37:36.812Z,100325.81
2023-03-20T23:40:04.699Z,100326.84
2023-03-20T23:42:31.382Z,100329.78
2023-03-20T23:45:04.430Z,100329.53
2023-03-20T23:47:45.488Z,100323.13
2023-03-20T23:50:20.685Z,100338.88
2023-03-20T23:53:03.609Z,100332.63
2023-03-20T23:55:36.436Z,100330.22
2023-03-20T23:58:03.356Z,100326.94
